createdAt,value
2024-03-05T00:01:47.084Z,32.31
2024-03-05T00:04:17.954Z,32.33
2024-03-05T00:06:50.405Z,32.32
2024-03-05T00:09:21.224Z,32.31
2024-03-05T00:11:52.193Z,32.28
2024-03-05T00:14:23.454Z,32.32
2024-03-05T00:16:53.836Z,32.31
2024-03-05T00:19:24.886Z,32.31
2024-03-05T00:21:55.485Z,32.32
2024-03-05T00:24:26.741Z,32.33
2024-03-05T00:26:57.032Z,32.28
2024-03-05T00:29:27.561Z,32.28
2024-03-05T00:31:58.438Z,32.27
2024-03-05T00:34:29.783Z,32.26
2024-03-05T00:37:01.275Z,32.27
2024-03-05T00:39:32.118Z,32.27
2024-03-05T00:42:02.946Z,32.32
2024-03-05T00:44:33.937Z,32.30
2024-03-05T00:47:04.732Z,32.29
2024-03-05T00:49:36.186Z,32.31
2024-03-05T00:52:07.327Z,32.33
2024-03-05T00:54:37.965Z,32.36
2024-03-05T00:57:09.205Z,32.34
2024-03-05T00:59:39.515Z,32.33
2024-03-05T01:02:10.541Z,32.33
2024-03-05T01:04:42.206Z,32.34
2024-03-05T01:07:13.718Z,32.35
2024-03-05T01:09:44.698Z,32.33
2024-03-05T01:12:15.710Z,32.37
2024-03-05T01:14:47.617Z,32.37
2024-03-05T01:17:18.395Z,32.40
2024-03-05T01:19:50.197Z,32.41
2024-03-05T01:22:21.085Z,32.40
2024-03-05T01:24:55.311Z,32.35
2024-03-05T01:27:28.138Z,32.35
2024-03-05T01:29:58.921Z,32.36
2024-03-05T01:32:32.116Z,32.36
2024-03-05T01:35:03.928Z,32.39
2024-03-05T01:37:34.703Z,32.35
2024-03-05T01:40:07.779Z,32.34
2024-03-05T01:42:38.788Z,32.33
2024-03-05T01:45:10.179Z,32.33
2024-03-05T01:47:41.164Z,32.38
2024-03-05T01:50:13.209Z,32.34
2024-03-05T01:52:44.953Z,32.35
2024-03-05T01:55:19.604Z,32.33
2024-03-05T01:57:53.662Z,32.36
2024-03-05T02:00:24.701Z,32.36
2024-03-05T02:02:55.851Z,32.40
2024-03-05T02:05:27.650Z,32.42
2024-03-05T02:07:58.584Z,32.44
2024-03-05T02:10:30.633Z,32.47
2024-03-05T02:13:01.561Z,32.45
2024-03-05T02:15:33.003Z,32.48
2024-03-05T02:18:04.340Z,32.49
2024-03-05T02:20:35.104Z,32.49
2024-03-05T02:23:08.761Z,32.48
2024-03-05T02:25:39.800Z,32.50
2024-03-05T02:28:11.974Z,32.51
2024-03-05T02:30:43.894Z,32.55
2024-03-05T02:33:17.003Z,32.52
2024-03-05T02:35:50.169Z,32.56
2024-03-05T02:38:21.465Z,32.57
2024-03-05T02:40:52.181Z,32.58
2024-03-05T02:43:24.535Z,32.57
2024-03-05T02:45:55.554Z,32.59
2024-03-05T02:48:26.663Z,32.59
2024-03-05T02:50:57.961Z,32.57
2024-03-05T02:53:29.102Z,32.60
2024-03-05T02:55:59.539Z,32.61
2024-03-05T02:58:30.438Z,32.63
2024-03-05T03:01:01.288Z,32.62
2024-03-05T03:03:33.004Z,32.64
2024-03-05T03:06:05.030Z,32.65
2024-03-05T03:08:36.749Z,32.65
2024-03-05T03:11:07.776Z,32.66
2024-03-05T03:13:39.058Z,32.64
2024-03-05T03:16:09.795Z,32.62
2024-03-05T03:18:40.580Z,32.64
2024-03-05T03:21:11.312Z,32.66
2024-03-05T03:23:42.106Z,32.68
2024-03-05T03:26:13.091Z,32.70
2024-03-05T03:28:44.068Z,32.71
2024-03-05T03:31:15.299Z,32.70
2024-03-05T03:33:45.552Z,32.71
2024-03-05T03:36:27.220Z,32.73
2024-03-05T03:38:57.919Z,32.71
2024-03-05T03:41:28.667Z,32.71
2024-03-05T03:43:59.493Z,32.76
2024-03-05T03:46:30.315Z,32.77
2024-03-05T03:49:01.208Z,32.76
2024-03-05T03:51:32.748Z,32.74
2024-03-05T03:54:03.365Z,32.76
2024-03-05T03:56:34.315Z,32.79
2024-03-05T03:59:05.055Z,32.81
2024-03-05T04:01:37.991Z,32.83
2024-03-05T04:04:09.402Z,32.82
2024-03-05T04:06:42.010Z,32.85
2024-03-05T04:09:13.125Z,32.86
2024-03-05T04:11:47.696Z,32.89
2024-03-05T04:14:19.031Z,32.91
2024-03-05T04:16:49.834Z,32.90
2024-03-05T04:19:20.346Z,32.93
2024-03-05T04:21:51.184Z,32.90
2024-03-05T04:24:22.018Z,32.93
2024-03-05T04:26:56.326Z,32.95
2024-03-05T04:29:33.583Z,32.97
2024-03-05T04:32:12.089Z,32.97
2024-03-05T04:34:45.577Z,32.98
2024-03-05T04:37:17.375Z,33.02
2024-03-05T04:39:49.988Z,33.03
2024-03-05T04:42:21.397Z,33.06
2024-03-05T04:44:52.451Z,33.04
2024-03-05T04:47:24.739Z,33.03
2024-03-05T04:49:55.592Z,33.07
2024-03-05T04:52:26.389Z,33.06
2024-03-05T04:54:58.685Z,33.10
2024-03-05T04:57:29.524Z,33.10
2024-03-05T05:00:01.670Z,33.17
2024-03-05T05:02:32.740Z,33.15
2024-03-05T05:05:07.359Z,33.16
2024-03-05T05:07:38.235Z,33.18
2024-03-05T05:10:11.765Z,33.13
2024-03-05T05:12:43.715Z,33.19
2024-03-05T05:15:15.905Z,33.14
2024-03-05T05:17:48.311Z,33.15
2024-03-05T05:20:19.066Z,33.18
2024-03-05T05:22:49.952Z,33.18
2024-03-05T05:25:23.451Z,33.17
2024-03-05T05:27:54.872Z,33.21
2024-03-05T05:30:27.159Z,33.25
2024-03-05T05:32:58.536Z,33.29
2024-03-05T05:35:29.256Z,33.28
2024-03-05T05:38:01.018Z,33.28
2024-03-05T05:40:32.541Z,33.27
2024-03-05T05:43:03.252Z,33.28
2024-03-05T05:45:34.224Z,33.31
2024-03-05T05:48:05.921Z,33.29
2024-03-05T05:50:37.737Z,33.27
2024-03-05T05:53:10.337Z,33.28
2024-03-05T05:55:41.384Z,33.32
2024-03-05T05:58:12.195Z,33.29
2024-03-05T06:00:43.650Z,33.27
2024-03-05T06:03:14.865Z,33.31
2024-03-05T06:05:46.624Z,33.29
2024-03-05T06:08:18.204Z,33.32
2024-03-05T06:10:49.677Z,33.32
2024-03-05T06:13:20.036Z,33.33
2024-03-05T06:15:52.477Z,33.32
2024-03-05T06:18:23.240Z,33.37
2024-03-05T06:20:55.127Z,33.35
2024-03-05T06:23:25.924Z,33.38
2024-03-05T06:25:57.452Z,33.38
2024-03-05T06:28:29.322Z,33.37
2024-03-05T06:31:00.067Z,33.40
2024-03-05T06:33:31.707Z,33.41
2024-03-05T06:36:02.504Z,33.40
2024-03-05T06:38:33.367Z,33.39
2024-03-05T06:41:04.735Z,33.46
2024-03-05T06:43:40.580Z,33.47
2024-03-05T06:46:16.924Z,33.47
2024-03-05T06:48:51.228Z,33.49
2024-03-05T06:51:35.124Z,33.50
2024-03-05T06:54:23.888Z,33.54
2024-03-05T06:56:55.679Z,33.55
2024-03-05T06:59:27.891Z,33.59
2024-03-05T07:01:59.524Z,33.59
2024-03-05T07:04:30.879Z,33.59
2024-03-05T07:07:02.699Z,33.59
2024-03-05T07:09:35.524Z,33.60
2024-03-05T07:12:06.722Z,33.60
2024-03-05T07:14:37.035Z,33.60
2024-03-05T07:17:10.138Z,33.58
2024-03-05T07:19:41.532Z,33.59
2024-03-05T07:22:12.621Z,33.57
2024-03-05T07:24:42.908Z,33.57
2024-03-05T07:27:15.605Z,33.59
2024-03-05T07:29:46.289Z,33.60
2024-03-05T07:32:19.371Z,33.54
2024-03-05T07:34:50.216Z,33.60
2024-03-05T07:37:20.745Z,33.55
2024-03-05T07:39:51.474Z,33.56
2024-03-05T07:42:22.120Z,33.57
2024-03-05T07:44:52.593Z,33.59
2024-03-05T07:47:23.114Z,33.58
2024-03-05T07:49:53.901Z,33.60
2024-03-05T07:52:25.190Z,33.60
2024-03-05T07:54:56.093Z,33.59
2024-03-05T07:57:26.814Z,33.57
2024-03-05T07:59:57.529Z,33.60
2024-03-05T08:02:28.866Z,33.60
2024-03-05T08:04:59.664Z,33.62
2024-03-05T08:07:30.523Z,33.60
2024-03-05T08:10:01.367Z,33.63
2024-03-05T08:12:32.243Z,33.61
2024-03-05T08:15:03.120Z,33.62
2024-03-05T08:17:40.271Z,33.64
2024-03-05T08:20:11.668Z,33.64
2024-03-05T08:22:42.818Z,33.64
2024-03-05T08:25:13.174Z,33.66
2024-03-05T08:27:47.807Z,33.63
2024-03-05T08:30:27.657Z,33.64
2024-03-05T08:32:58.898Z,33.67
2024-03-05T08:35:33.072Z,33.70
2024-03-05T08:38:03.839Z,33.66
2024-03-05T08:40:39.700Z,33.63
2024-03-05T08:43:12.879Z,33.65
2024-03-05T08:45:43.853Z,33.74
2024-03-05T08:48:14.699Z,33.80
2024-03-05T08:50:45.598Z,33.87
2024-03-05T08:53:17.717Z,33.87
2024-03-05T08:55:48.484Z,33.90
2024-03-05T08:58:19.287Z,33.93
2024-03-05T09:00:54.328Z,33.93
2024-03-05T09:03:25.137Z,33.99
2024-03-05T09:05:56.562Z,33.97
2024-03-05T09:08:27.230Z,34.02
2024-03-05T09:10:58.324Z,33.97
2024-03-05T09:13:29.543Z,33.98
2024-03-05T09:16:01.454Z,33.97
2024-03-05T09:18:32.871Z,33.96
2024-03-05T09:21:03.571Z,33.97
2024-03-05T09:23:34.597Z,33.96
2024-03-05T09:26:05.650Z,33.92
2024-03-05T09:28:38.111Z,33.94
2024-03-05T09:31:09.532Z,33.95
2024-03-05T09:33:42.290Z,33.97
2024-03-05T09:36:13.231Z,33.98
2024-03-05T09:38:44.318Z,34.02
2024-03-05T09:41:16.343Z,34.05
2024-03-05T09:43:48.844Z,34.07
2024-03-05T09:46:21.502Z,34.05
2024-03-05T09:48:53.016Z,34.07
2024-03-05T09:51:26.058Z,34.07
2024-03-05T09:53:57.288Z,34.07
2024-03-05T09:56:36.390Z,34.09
2024-03-05T09:59:11.426Z,34.09
2024-03-05T10:01:47.660Z,34.12
2024-03-05T10:04:20.782Z,34.08
2024-03-05T10:06:57.395Z,34.08
2024-03-05T10:09:28.783Z,34.07
2024-03-05T10:12:03.123Z,34.08
2024-03-05T10:14:34.912Z,34.10
2024-03-05T10:17:05.901Z,34.07
2024-03-05T10:19:46.318Z,34.07
2024-03-05T10:22:18.010Z,34.05
2024-03-05T10:24:49.341Z,34.04
2024-03-05T10:27:31.329Z,34.04
2024-03-05T10:30:02.224Z,34.00
2024-03-05T10:32:32.870Z,33.98
2024-03-05T10:35:04.636Z,33.97
2024-03-05T10:37:35.466Z,34.02
2024-03-05T10:40:12.099Z,34.02
2024-03-05T10:42:45.900Z,34.02
2024-03-05T10:45:18.132Z,34.02
2024-03-05T10:47:52.688Z,34.03
2024-03-05T10:50:24.406Z,34.01
2024-03-05T10:52:56.033Z,33.99
2024-03-05T10:55:28.691Z,34.02
2024-03-05T10:58:35.907Z,34.03
2024-03-05T11:01:10.591Z,33.98
2024-03-05T11:03:44.658Z,33.97
2024-03-05T11:06:20.593Z,33.97
2024-03-05T11:08:52.646Z,33.94
2024-03-05T11:11:27.487Z,33.97
2024-03-05T11:14:01.765Z,33.95
2024-03-05T11:16:37.182Z,33.96
2024-03-05T11:19:16.859Z,33.97
2024-03-05T11:21:47.933Z,33.97
2024-03-05T11:24:19.542Z,33.96
2024-03-05T11:26:50.182Z,33.95
2024-03-05T11:29:20.947Z,33.97
2024-03-05T11:31:54.479Z,33.97
2024-03-05T11:34:26.299Z,33.94
2024-03-05T11:37:13.304Z,33.96
2024-03-05T11:39:46.711Z,33.94
2024-03-05T11:42:22.112Z,33.94
2024-03-05T11:44:53.517Z,33.94
2024-03-05T11:47:25.139Z,33.94
2024-03-05T11:49:56.394Z,33.96
2024-03-05T11:52:29.109Z,33.94
2024-03-05T11:55:09.504Z,33.95
2024-03-05T11:57:40.275Z,33.95
2024-03-05T12:00:21.583Z,33.95
2024-03-05T12:02:58.590Z,33.92
2024-03-05T12:05:33.329Z,33.93
2024-03-05T12:08:12.300Z,33.88
2024-03-05T12:10:44.084Z,33.88
2024-03-05T12:13:22.335Z,33.85
2024-03-05T12:15:53.304Z,33.84
2024-03-05T12:18:24.033Z,33.82
2024-03-05T12:20:56.635Z,33.84
2024-03-05T12:23:41.141Z,33.84
2024-03-05T12:26:16.330Z,33.81
2024-03-05T12:28:47.153Z,33.80
2024-03-05T12:31:18.023Z,33.82
2024-03-05T12:33:49.078Z,33.80
2024-03-05T12:36:20.168Z,33.78
2024-03-05T12:38:50.610Z,33.77
2024-03-05T12:41:24.649Z,33.76
2024-03-05T12:43:59.517Z,33.72
2024-03-05T12:46:30.187Z,33.67
2024-03-05T12:49:02.313Z,33.67
2024-03-05T12:51:34.284Z,33.67
2024-03-05T12:54:12.638Z,33.69
2024-03-05T12:56:45.574Z,33.69
2024-03-05T12:59:23.112Z,33.68
2024-03-05T13:01:54.219Z,33.69
2024-03-05T13:04:25.194Z,33.76
2024-03-05T13:06:57.134Z,33.69
2024-03-05T13:09:27.947Z,33.76
2024-03-05T13:11:59.115Z,33.68
2024-03-05T13:14:30.020Z,33.67
2024-03-05T13:17:02.289Z,33.58
2024-03-05T13:19:33.086Z,33.55
2024-03-05T13:22:03.928Z,33.51
2024-03-05T13:24:37.820Z,33.50
2024-03-05T13:27:09.050Z,33.49
2024-03-05T13:29:39.372Z,33.47
2024-03-05T13:32:10.851Z,33.42
2024-03-05T13:34:41.599Z,33.37
2024-03-05T13:37:12.898Z,33.35
2024-03-05T13:39:47.517Z,33.35
2024-03-05T13:42:18.452Z,33.36
2024-03-05T13:44:49.219Z,33.27
2024-03-05T13:47:20.777Z,33.24
2024-03-05T13:49:51.859Z,33.24
2024-03-05T13:52:22.703Z,33.18
2024-03-05T13:54:53.539Z,33.14
2024-03-05T13:57:24.227Z,33.17
2024-03-05T13:59:55.053Z,33.07
2024-03-05T14:02:26.588Z,33.08
2024-03-05T14:04:56.924Z,32.98
2024-03-05T14:07:27.573Z,33.07
2024-03-05T14:09:59.947Z,33.09
2024-03-05T14:12:34.604Z,32.93
2024-03-05T14:15:12.756Z,32.91
2024-03-05T14:17:44.018Z,32.79
2024-03-05T14:20:16.731Z,32.91
2024-03-05T14:22:47.900Z,32.88
2024-03-05T14:25:21.714Z,32.86
2024-03-05T14:27:52.522Z,32.78
2024-03-05T14:30:23.268Z,32.91
2024-03-05T14:32:54.162Z,32.98
2024-03-05T14:35:26.276Z,33.08
2024-03-05T14:39:41.744Z,33.13
2024-03-05T14:42:13.931Z,33.22
2024-03-05T14:44:45.013Z,33.23
2024-03-05T14:47:17.061Z,33.26
2024-03-05T14:49:49.132Z,33.19
2024-03-05T14:52:20.333Z,33.13
2024-03-05T14:54:51.387Z,33.15
2024-03-05T14:57:22.186Z,33.09
2024-03-05T14:59:52.921Z,33.03
2024-03-05T15:02:23.966Z,32.99
2024-03-05T15:04:54.484Z,32.92
2024-03-05T15:07:25.916Z,32.90
2024-03-05T15:09:57.399Z,32.86
2024-03-05T15:12:28.544Z,32.93
2024-03-05T15:14:59.489Z,33.10
2024-03-05T15:17:30.177Z,33.18
2024-03-05T15:20:02.700Z,33.19
2024-03-05T15:22:33.647Z,33.28
2024-03-05T15:25:04.523Z,33.29
2024-03-05T15:27:35.286Z,33.29
2024-03-05T15:30:16.166Z,33.30
2024-03-05T15:32:51.042Z,33.23
2024-03-05T15:35:26.487Z,33.22
2024-03-05T15:38:02.717Z,33.28
2024-03-05T15:40:36.004Z,33.28
2024-03-05T15:43:08.597Z,33.28
2024-03-05T15:45:41.508Z,33.28
2024-03-05T15:48:13.315Z,33.23
2024-03-05T15:50:44.693Z,33.21
2024-03-05T15:53:15.680Z,33.21
2024-03-05T15:55:48.385Z,33.21
2024-03-05T15:58:45.079Z,33.22
2024-03-05T16:01:16.210Z,33.24
2024-03-05T16:03:58.215Z,33.19
2024-03-05T16:06:37.724Z,33.19
2024-03-05T16:09:08.359Z,33.14
2024-03-05T16:11:40.826Z,33.18
2024-03-05T16:14:12.073Z,33.23
2024-03-05T16:16:43.036Z,33.20
2024-03-05T16:19:16.964Z,33.17
2024-03-05T16:21:52.844Z,33.19
2024-03-05T16:24:23.857Z,33.19
2024-03-05T16:26:57.630Z,33.19
2024-03-05T16:29:28.629Z,33.21
2024-03-05T16:32:01.358Z,33.22
2024-03-05T16:34:32.210Z,33.17
2024-03-05T16:37:02.840Z,33.19
2024-03-05T16:39:33.555Z,33.14
2024-03-05T16:42:04.014Z,33.18
2024-03-05T16:44:35.217Z,33.17
2024-03-05T16:47:06.541Z,33.16
2024-03-05T16:49:37.923Z,33.16
2024-03-05T16:52:10.223Z,33.13
2024-03-05T16:54:41.091Z,33.16
2024-03-05T16:57:13.671Z,33.13
2024-03-05T16:59:45.276Z,33.13
2024-03-05T17:02:17.973Z,33.08
2024-03-05T17:04:50.930Z,33.09
2024-03-05T17:07:21.759Z,33.17
2024-03-05T17:09:52.768Z,33.14
2024-03-05T17:12:23.893Z,33.13
2024-03-05T17:14:54.359Z,33.12
2024-03-05T17:17:24.994Z,33.13
2024-03-05T17:19:59.362Z,33.12
2024-03-05T17:22:31.713Z,33.14
2024-03-05T17:25:04.311Z,33.10
2024-03-05T17:27:37.138Z,33.13
2024-03-05T17:30:13.586Z,33.13
2024-03-05T17:32:45.861Z,33.10
2024-03-05T17:35:18.217Z,33.12
2024-03-05T17:37:49.763Z,33.12
2024-03-05T17:40:20.431Z,33.10
2024-03-05T17:42:52.563Z,33.08
2024-03-05T17:45:23.546Z,33.08
2024-03-05T17:47:55.048Z,33.06
2024-03-05T17:50:26.746Z,33.04
2024-03-05T17:52:57.548Z,33.03
2024-03-05T17:55:28.730Z,32.99
2024-03-05T17:57:59.675Z,33.01
2024-03-05T18:00:31.116Z,33.02
2024-03-05T18:03:07.866Z,33.02
2024-03-05T18:05:38.591Z,33.07
2024-03-05T18:08:09.527Z,33.00
2024-03-05T18:10:40.907Z,33.01
2024-03-05T18:13:13.023Z,33.02
2024-03-05T18:15:44.500Z,33.03
2024-03-05T18:18:17.645Z,32.99
2024-03-05T18:20:48.964Z,33.03
2024-03-05T18:23:19.848Z,33.00
2024-03-05T18:25:51.685Z,33.01
2024-03-05T18:28:25.575Z,32.98
2024-03-05T18:30:57.511Z,32.98
2024-03-05T18:33:28.663Z,32.97
2024-03-05T18:36:03.029Z,32.96
2024-03-05T18:38:34.310Z,32.94
2024-03-05T18:41:06.033Z,32.95
2024-03-05T18:43:37.149Z,32.95
2024-03-05T18:46:10.031Z,32.93
2024-03-05T18:48:40.723Z,32.99
2024-03-05T18:51:13.365Z,32.93
2024-03-05T18:53:49.423Z,32.98
2024-03-05T18:56:21.069Z,32.93
2024-03-05T18:58:52.259Z,32.97
2024-03-05T19:01:23.032Z,32.94
2024-03-05T19:04:01.423Z,32.94
2024-03-05T19:06:39.952Z,32.91
2024-03-05T19:09:12.277Z,32.95
2024-03-05T19:11:46.559Z,32.92
2024-03-05T19:14:19.149Z,32.91
2024-03-05T19:16:52.621Z,32.93
2024-03-05T19:19:23.399Z,32.93
2024-03-05T19:21:54.627Z,32.90
2024-03-05T19:24:25.251Z,32.89
2024-03-05T19:26:57.020Z,32.89
2024-03-05T19:29:30.166Z,32.88
2024-03-05T19:32:00.631Z,32.88
2024-03-05T19:34:31.561Z,32.91
2024-03-05T19:37:02.238Z,32.89
2024-03-05T19:39:33.114Z,32.86
2024-03-05T19:42:04.463Z,32.86
2024-03-05T19:44:36.109Z,32.85
2024-03-05T19:47:07.005Z,32.85
2024-03-05T19:49:38.528Z,32.85
2024-03-05T19:52:10.160Z,32.86
2024-03-05T19:54:40.993Z,32.83
2024-03-05T19:57:12.197Z,32.83
2024-03-05T19:59:43.030Z,32.85
2024-03-05T20:02:14.083Z,32.85
2024-03-05T20:04:45.095Z,32.85
2024-03-05T20:07:17.100Z,32.85
2024-03-05T20:09:48.729Z,32.85
2024-03-05T20:12:19.581Z,32.86
2024-03-05T20:14:51.093Z,32.87
2024-03-05T20:17:24.223Z,32.82
2024-03-05T20:19:56.467Z,32.82
2024-03-05T20:22:31.460Z,32.78
2024-03-05T20:25:03.643Z,32.86
2024-03-05T20:27:34.769Z,32.80
2024-03-05T20:30:15.650Z,32.81
2024-03-05T20:32:48.411Z,32.82
2024-03-05T20:35:20.557Z,32.80
2024-03-05T20:37:53.633Z,32.83
2024-03-05T20:40:26.434Z,32.75
2024-03-05T20:42:57.777Z,32.80
2024-03-05T20:45:29.128Z,32.77
2024-03-05T20:47:59.869Z,32.77
2024-03-05T20:50:31.814Z,32.81
2024-03-05T20:53:02.629Z,32.84
2024-03-05T20:55:33.936Z,32.78
2024-03-05T20:58:04.828Z,32.71
2024-03-05T21:00:35.804Z,32.69
2024-03-05T21:03:07.055Z,32.71
2024-03-05T21:05:37.558Z,32.68
2024-03-05T21:08:09.285Z,32.74
2024-03-05T21:10:40.284Z,32.67
2024-03-05T21:13:11.847Z,32.65
2024-03-05T21:15:42.731Z,32.72
2024-03-05T21:18:13.988Z,32.73
2024-03-05T21:20:45.013Z,32.70
2024-03-05T21:23:18.444Z,32.65
2024-03-05T21:26:02.712Z,32.67
2024-03-05T21:28:41.037Z,32.66
2024-03-05T21:31:12.317Z,32.64
2024-03-05T21:33:43.139Z,32.66
2024-03-05T21:36:13.996Z,32.61
2024-03-05T21:38:44.727Z,32.61
2024-03-05T21:41:16.078Z,32.64
2024-03-05T21:43:47.674Z,32.59
2024-03-05T21:46:18.585Z,32.57
2024-03-05T21:48:49.631Z,32.59
2024-03-05T21:51:20.661Z,32.58
2024-03-05T21:53:51.650Z,32.54
2024-03-05T21:56:22.382Z,32.57
2024-03-05T21:58:53.384Z,32.59
2024-03-05T22:01:24.171Z,32.58
2024-03-05T22:03:54.963Z,32.52
2024-03-05T22:06:25.646Z,32.50
2024-03-05T22:09:00.132Z,32.56
2024-03-05T22:11:31.365Z,32.58
2024-03-05T22:14:02.820Z,32.59
2024-03-05T22:16:33.658Z,32.59
2024-03-05T22:19:29.552Z,32.54
2024-03-05T22:22:00.261Z,32.57
2024-03-05T22:24:31.051Z,32.59
2024-03-05T22:27:01.864Z,32.55
2024-03-05T22:29:33.879Z,32.54
2024-03-05T22:32:04.394Z,32.54
2024-03-05T22:34:37.061Z,32.51
2024-03-05T22:37:08.168Z,32.57
2024-03-05T22:39:40.415Z,32.65
2024-03-05T22:42:11.208Z,32.59
2024-03-05T22:44:43.712Z,32.57
2024-03-05T22:47:14.654Z,32.57
2024-03-05T22:49:47.004Z,32.54
2024-03-05T22:52:19.638Z,32.52
2024-03-05T22:54:50.826Z,32.46
2024-03-05T22:57:21.759Z,32.52
2024-03-05T22:59:52.224Z,32.48
2024-03-05T23:02:24.708Z,32.46
2024-03-05T23:04:55.856Z,32.50
2024-03-05T23:07:27.182Z,32.52
2024-03-05T23:09:57.867Z,32.48
2024-03-05T23:12:28.656Z,32.43
2024-03-05T23:15:00.184Z,32.42
2024-03-05T23:17:30.869Z,32.42
2024-03-05T23:20:01.738Z,32.42
2024-03-05T23:22:32.510Z,32.44
2024-03-05T23:25:03.347Z,32.43
2024-03-05T23:27:34.032Z,32.40
2024-03-05T23:30:07.415Z,32.38
2024-03-05T23:32:38.232Z,32.37
2024-03-05T23:35:09.917Z,32.37
2024-03-05T23:37:40.936Z,32.40
2024-03-05T23:40:13.239Z,32.36
2024-03-05T23:42:44.158Z,32.33
2024-03-05T23:45:15.141Z,32.31
2024-03-05T23:47:46.066Z,32.28
2024-03-05T23:50:17.111Z,32.30
2024-03-05T23:52:47.867Z,32.29
2024-03-05T23:55:18.782Z,32.28
2024-03-05T23:57:49.602Z,32.28
